Time;durP1;ratioP1;P1;durP2;ratioP2;P2;SDS_P1;SDS_P2;PMS_P1;PMS_P2;Temp;Humidity;BMP_temperature;BMP_pressure;BME280_temperature;BME280_humidity;BME280_pressure;Samples;Min_cycle;Max_cycle;Signal;HPM_P1;HPM_P2
2022/07/27 00:01:44;;;;;;;12.85;1.92;;;19.70;53.10;;;;;;4999355;28;20057;-45
2022/07/27 00:04:11;;;;;;;7.68;1.80;;;19.70;53.10;;;;;;4999843;28;20058;-46
2022/07/27 00:06:40;;;;;;;4.90;1.33;;;19.70;53.10;;;;;;5002632;28;20053;-50
2022/07/27 00:09:08;;;;;;;9.35;1.88;;;19.70;53.10;;;;;;4997279;28;20065;-48
2022/07/27 00:11:35;;;;;;;6.25;1.38;;;19.60;53.00;;;;;;5000597;28;20501;-50
2022/07/27 00:14:03;;;;;;;7.88;1.77;;;19.60;53.00;;;;;;4999030;28;20057;-44
2022/07/27 00:16:30;;;;;;;6.85;1.27;;;19.60;52.90;;;;;;5001176;28;20049;-46
2022/07/27 00:18:58;;;;;;;8.25;1.80;;;19.60;52.90;;;;;;4999688;28;20058;-46
2022/07/27 00:21:25;;;;;;;10.98;2.83;;;19.60;53.00;;;;;;5000145;28;20049;-44
2022/07/27 00:23:55;;;;;;;4.68;1.20;;;19.60;52.90;;;;;;4999959;28;20054;-44
2022/07/27 00:26:22;;;;;;;5.65;1.48;;;19.60;52.90;;;;;;4999792;28;20066;-45
2022/07/27 00:28:50;;;;;;;5.35;1.25;;;19.60;52.80;;;;;;4997512;28;20050;-47
2022/07/27 00:31:18;;;;;;;6.75;1.35;;;19.60;52.70;;;;;;5000258;28;20065;-50
2022/07/27 00:33:45;;;;;;;4.57;1.65;;;19.50;53.00;;;;;;5002399;28;20077;-44
2022/07/27 00:36:13;;;;;;;9.30;2.10;;;19.60;52.60;;;;;;5002582;28;20050;-47
2022/07/27 00:38:40;;;;;;;5.82;1.30;;;19.50;52.50;;;;;;4999705;28;20041;-46
2022/07/27 00:41:10;;;;;;;6.15;1.45;;;19.50;52.50;;;;;;5001529;28;20061;-48
2022/07/27 00:43:53;;;;;;;10.73;2.40;;;19.50;52.40;;;;;;5000558;28;20054;-44
2022/07/27 00:46:20;;;;;;;11.98;1.70;;;19.50;52.30;;;;;;4999519;28;20053;-47
2022/07/27 00:48:48;;;;;;;9.25;1.90;;;19.50;52.40;;;;;;4999087;28;20061;-45
2022/07/27 00:51:17;;;;;;;7.88;1.85;;;19.50;52.30;;;;;;5001479;28;20050;-43
2022/07/27 00:53:45;;;;;;;7.97;1.80;;;19.40;52.20;;;;;;4999319;28;20069;-45
2022/07/27 00:56:14;;;;;;;4.88;1.33;;;19.40;52.00;;;;;;5004965;28;20057;-45
2022/07/27 00:58:44;;;;;;;11.77;1.67;;;19.50;52.10;;;;;;5002093;28;20391;-45
2022/07/27 01:01:12;;;;;;;5.85;1.60;;;19.40;52.10;;;;;;5001344;28;20503;-44
2022/07/27 01:03:39;;;;;;;6.55;1.83;;;19.40;52.00;;;;;;5005056;28;20049;-45
2022/07/27 01:06:07;;;;;;;8.18;1.50;;;19.40;51.90;;;;;;5005141;28;20391;-44
2022/07/27 01:08:35;;;;;;;6.10;1.70;;;19.40;51.90;;;;;;5001574;28;20061;-46
2022/07/27 01:11:03;;;;;;;5.30;1.50;;;19.30;51.90;;;;;;5001861;28;20518;-45
2022/07/27 01:13:32;;;;;;;13.43;1.92;;;19.30;51.80;;;;;;5003526;28;20486;-46
2022/07/27 01:15:59;;;;;;;4.45;1.55;;;19.30;51.70;;;;;;5004701;28;20525;-44
2022/07/27 01:18:29;;;;;;;5.07;1.35;;;19.30;51.60;;;;;;5003679;28;20486;-43
2022/07/27 01:20:58;;;;;;;9.52;1.70;;;19.20;51.50;;;;;;5002722;28;20057;-45
2022/07/27 01:23:28;;;;;;;7.05;1.52;;;19.20;51.50;;;;;;5002640;28;20053;-46
2022/07/27 01:25:55;;;;;;;10.25;1.67;;;19.20;51.40;;;;;;5005419;28;20137;-44
2022/07/27 01:28:23;;;;;;;6.60;1.45;;;19.20;51.40;;;;;;5000411;28;20726;-43
2022/07/27 01:30:51;;;;;;;6.57;1.20;;;19.10;51.30;;;;;;5000893;28;20494;-43
2022/07/27 01:33:24;;;;;;;8.55;1.67;;;19.10;51.50;;;;;;5004503;28;20050;-47
2022/07/27 01:35:54;;;;;;;5.83;1.50;;;19.10;51.40;;;;;;5004942;28;20058;-44
2022/07/27 01:38:22;;;;;;;4.72;1.52;;;19.10;51.40;;;;;;5000304;28;20053;-43
2022/07/27 01:40:52;;;;;;;7.45;1.50;;;19.10;51.50;;;;;;5000231;28;20446;-45
2022/07/27 01:43:20;;;;;;;9.88;1.55;;;19.10;51.40;;;;;;5001271;28;20509;-43
2022/07/27 01:45:47;;;;;;;5.15;1.42;;;19.10;51.40;;;;;;5004551;28;20057;-48
2022/07/27 01:48:15;;;;;;;4.53;1.50;;;19.10;51.40;;;;;;5002350;28;20053;-49
2022/07/27 01:50:42;;;;;;;4.03;1.25;;;19.10;51.80;;;;;;5000094;28;20050;-47
2022/07/27 01:53:10;;;;;;;7.40;1.63;;;19.00;51.40;;;;;;5004230;28;20057;-44
2022/07/27 01:55:37;;;;;;;4.95;1.63;;;19.00;51.30;;;;;;5003359;28;20049;-48
2022/07/27 01:58:07;;;;;;;13.35;1.55;;;19.00;51.50;;;;;;5000058;28;20046;-45
2022/07/27 02:00:35;;;;;;;7.43;1.77;;;19.00;51.50;;;;;;5000095;28;20054;-44
2022/07/27 02:03:03;;;;;;;7.85;1.98;;;19.00;51.50;;;;;;5003619;28;20058;-45
2022/07/27 02:05:30;;;;;;;3.80;1.15;;;18.90;51.50;;;;;;5005122;28;20509;-43
2022/07/27 02:07:58;;;;;;;7.93;1.90;;;18.90;51.50;;;;;;5000036;28;20501;-46
2022/07/27 02:10:25;;;;;;;4.93;1.40;;;18.90;51.60;;;;;;5000657;28;20049;-43
2022/07/27 02:12:52;;;;;;;8.77;1.67;;;18.90;51.60;;;;;;5001872;28;20480;-46
2022/07/27 02:15:23;;;;;;;5.45;1.45;;;18.90;51.60;;;;;;5001893;28;20050;-44
2022/07/27 02:17:53;;;;;;;5.97;1.20;;;18.90;51.80;;;;;;5001845;28;20053;-43
2022/07/27 02:20:22;;;;;;;5.55;1.33;;;18.90;51.70;;;;;;5000688;28;20532;-44
2022/07/27 02:22:51;;;;;;;4.60;1.27;;;18.80;51.70;;;;;;5002421;28;20409;-45
2022/07/27 02:25:20;;;;;;;5.53;1.35;;;18.80;51.70;;;;;;5004243;28;20509;-46
2022/07/27 02:27:48;;;;;;;3.75;1.33;;;18.80;51.70;;;;;;5000229;28;20054;-44
2022/07/27 02:30:16;;;;;;;4.85;1.40;;;18.80;51.80;;;;;;4999491;28;20949;-44
2022/07/27 02:32:45;;;;;;;8.13;1.85;;;18.80;51.80;;;;;;5004241;28;20054;-45
2022/07/27 02:35:13;;;;;;;5.97;1.67;;;18.70;51.50;;;;;;5003420;28;20050;-43
2022/07/27 02:37:40;;;;;;;4.72;1.38;;;18.70;51.50;;;;;;5000708;28;20512;-43
2022/07/27 02:40:08;;;;;;;11.35;1.40;;;18.70;51.50;;;;;;5001126;28;20344;-43
2022/07/27 02:42:36;;;;;;;7.53;1.70;;;18.60;51.40;;;;;;5001912;28;20053;-45
2022/07/27 02:45:04;;;;;;;6.43;2.05;;;18.60;51.40;;;;;;5001961;28;20053;-47
2022/07/27 02:47:31;;;;;;;11.50;1.77;;;18.50;51.30;;;;;;5000170;28;20054;-43
2022/07/27 02:50:01;;;;;;;10.35;1.60;;;18.50;51.30;;;;;;5000460;28;20045;-44
2022/07/27 02:52:28;;;;;;;3.75;1.35;;;18.40;51.40;;;;;;5002719;28;20502;-46
2022/07/27 02:54:56;;;;;;;8.85;1.77;;;18.40;51.50;;;;;;5002286;28;20061;-47
2022/07/27 02:57:23;;;;;;;7.22;2.00;;;18.30;51.50;;;;;;5001690;28;20050;-43
2022/07/27 02:59:51;;;;;;;5.05;1.30;;;18.30;52.00;;;;;;4999564;28;20057;-45
2022/07/27 03:02:18;;;;;;;8.65;1.50;;;18.30;51.50;;;;;;5002578;28;20430;-44
2022/07/27 03:04:46;;;;;;;5.03;1.35;;;18.20;51.50;;;;;;5003881;28;20064;-46
2022/07/27 03:07:14;;;;;;;6.45;1.20;;;18.10;51.50;;;;;;5000467;28;20054;-47
2022/07/27 03:09:42;;;;;;;8.10;1.88;;;18.10;51.50;;;;;;5000779;28;20065;-43
2022/07/27 03:12:09;;;;;;;6.75;1.42;;;18.10;51.50;;;;;;5003365;28;20058;-46
2022/07/27 03:14:37;;;;;;;9.05;1.35;;;18.00;51.50;;;;;;5000888;28;20057;-47
2022/07/27 03:17:04;;;;;;;5.45;1.45;;;18.00;51.60;;;;;;5000228;28;20054;-44
2022/07/27 03:19:31;;;;;;;7.38;1.60;;;18.00;51.60;;;;;;5001297;28;20046;-45
2022/07/27 03:21:59;;;;;;;6.28;1.42;;;18.00;51.70;;;;;;5002347;28;20057;-48
2022/07/27 03:24:28;;;;;;;7.38;1.27;;;18.00;51.70;;;;;;4998875;28;20060;-45
2022/07/27 03:26:55;;;;;;;4.97;1.35;;;17.90;51.60;;;;;;5001993;28;20061;-47
2022/07/27 03:29:22;;;;;;;8.75;1.45;;;17.90;51.60;;;;;;5000150;28;20064;-46
2022/07/27 03:31:50;;;;;;;7.20;1.30;;;17.90;51.60;;;;;;4999542;28;20422;-45
2022/07/27 03:34:17;;;;;;;5.32;1.23;;;17.90;51.70;;;;;;5002706;28;20054;-48
2022/07/27 03:36:45;;;;;;;4.75;1.50;;;17.90;51.80;;;;;;5002928;28;20049;-48
2022/07/27 03:39:13;;;;;;;5.30;1.20;;;17.90;52.40;;;;;;5000406;28;20066;-48
2022/07/27 03:41:41;;;;;;;8.13;1.40;;;17.90;51.90;;;;;;4998248;28;20046;-43
2022/07/27 03:44:09;;;;;;;5.22;1.70;;;17.80;51.90;;;;;;5001415;28;20405;-46
2022/07/27 03:46:36;;;;;;;3.15;1.42;;;17.80;51.80;;;;;;5001808;28;20064;-47
2022/07/27 03:49:04;;;;;;;7.93;1.45;;;17.80;51.80;;;;;;4999845;28;20418;-44
2022/07/27 03:51:31;;;;;;;5.47;1.35;;;17.80;51.80;;;;;;4999979;28;20049;-44
2022/07/27 03:53:59;;;;;;;4.07;1.23;;;17.80;51.80;;;;;;5000036;28;20429;-45
2022/07/27 03:56:27;;;;;;;8.23;1.50;;;17.80;51.90;;;;;;4999234;28;20065;-47
2022/07/27 03:58:55;;;;;;;4.38;2.13;;;17.70;51.80;;;;;;5000120;28;20401;-46
2022/07/27 04:01:23;;;;;;;9.40;1.75;;;17.70;51.80;;;;;;5001408;28;20054;-44
2022/07/27 04:03:50;;;;;;;9.88;1.63;;;17.70;51.90;;;;;;5001512;28;20410;-44
2022/07/27 04:06:17;;;;;;;3.72;1.50;;;17.70;52.00;;;;;;5002335;28;20054;-46
2022/07/27 04:08:47;;;;;;;7.03;1.52;;;17.60;51.90;;;;;;4994040;28;20622;-47
2022/07/27 04:11:16;;;;;;;6.45;1.60;;;17.70;52.10;;;;;;5000363;28;20631;-44
2022/07/27 04:13:45;;;;;;;11.38;2.55;;;17.60;52.50;;;;;;4983914;28;20065;-45
2022/07/27 04:16:14;;;;;;;6.63;1.33;;;17.60;52.10;;;;;;4996311;28;20530;-45
2022/07/27 04:18:41;;;;;;;5.80;1.30;;;17.50;52.20;;;;;;4997043;28;20049;-44
2022/07/27 04:21:09;;;;;;;5.80;1.77;;;17.50;52.30;;;;;;4997928;28;20405;-45
2022/07/27 04:23:36;;;;;;;4.45;1.45;;;17.40;52.50;;;;;;4997971;28;20053;-44
2022/07/27 04:26:04;;;;;;;11.43;1.90;;;17.40;52.50;;;;;;5000267;28;20093;-43
2022/07/27 04:28:31;;;;;;;8.45;1.77;;;17.40;52.50;;;;;;5000857;28;20050;-44
2022/07/27 04:30:59;;;;;;;4.07;1.70;;;17.30;52.60;;;;;;5002751;28;20061;-45
2022/07/27 04:33:27;;;;;;;9.27;2.13;;;17.30;52.60;;;;;;5006913;28;20057;-45
2022/07/27 04:35:55;;;;;;;5.68;1.73;;;17.30;52.80;;;;;;5004055;28;20050;-45
2022/07/27 04:38:23;;;;;;;4.47;1.52;;;17.30;52.90;;;;;;5003693;28;20053;-43
2022/07/27 04:40:50;;;;;;;5.90;1.65;;;17.20;53.50;;;;;;5001910;28;20052;-46
2022/07/27 04:43:18;;;;;;;4.05;1.30;;;17.20;53.20;;;;;;5000503;28;20050;-46
2022/07/27 04:45:45;;;;;;;7.50;1.40;;;17.20;53.30;;;;;;5001371;28;20053;-44
2022/07/27 04:48:13;;;;;;;5.35;1.20;;;17.10;53.40;;;;;;4996955;28;20061;-43
2022/07/27 04:50:44;;;;;;;8.60;1.60;;;17.10;53.40;;;;;;4995734;28;20116;-45
2022/07/27 04:53:13;;;;;;;7.55;1.63;;;17.20;53.50;;;;;;5002273;28;20069;-46
2022/07/27 04:55:43;;;;;;;3.65;1.40;;;17.10;53.50;;;;;;4997927;28;20054;-47
2022/07/27 04:58:10;;;;;;;6.45;1.45;;;17.20;53.50;;;;;;5003800;28;20050;-45
2022/07/27 05:00:38;;;;;;;8.68;1.55;;;17.10;53.50;;;;;;4993201;28;20053;-47
2022/07/27 05:03:05;;;;;;;8.20;1.83;;;17.10;53.70;;;;;;4994934;28;20050;-47
2022/07/27 05:05:33;;;;;;;6.43;1.40;;;17.10;53.80;;;;;;5002345;28;20061;-45
2022/07/27 05:08:02;;;;;;;7.22;1.65;;;17.10;53.90;;;;;;5000445;28;20065;-43
2022/07/27 05:10:29;;;;;;;8.43;1.52;;;17.10;53.90;;;;;;5003230;28;20049;-44
2022/07/27 05:12:57;;;;;;;5.97;1.52;;;17.00;53.90;;;;;;5003258;28;20422;-48
2022/07/27 05:15:25;;;;;;;8.30;1.40;;;17.10;54.00;;;;;;5000635;28;20058;-43
2022/07/27 05:17:52;;;;;;;13.00;1.92;;;17.00;54.00;;;;;;5004452;28;20058;-44
2022/07/27 05:20:20;;;;;;;5.25;1.40;;;17.00;54.10;;;;;;5001675;28;20068;-46
2022/07/27 05:22:47;;;;;;;6.93;1.42;;;17.00;54.30;;;;;;5002078;28;20053;-47
2022/07/27 05:25:17;;;;;;;6.22;1.98;;;17.00;54.30;;;;;;5002121;28;20445;-43
2022/07/27 05:27:44;;;;;;;6.80;1.90;;;17.00;54.40;;;;;;5001153;28;20076;-44
2022/07/27 05:30:13;;;;;;;6.00;1.42;;;17.00;54.50;;;;;;5000241;28;20045;-47
2022/07/27 05:32:40;;;;;;;7.30;1.70;;;17.00;54.70;;;;;;5001997;28;20081;-45
2022/07/27 05:35:09;;;;;;;6.72;1.52;;;17.00;54.80;;;;;;5000183;28;20058;-46
2022/07/27 05:37:36;;;;;;;6.35;1.75;;;17.00;55.00;;;;;;4996024;28;20513;-45
2022/07/27 05:40:04;;;;;;;6.88;1.67;;;17.00;54.90;;;;;;4999177;28;20064;-46
2022/07/27 05:42:33;;;;;;;6.25;1.55;;;17.00;55.00;;;;;;4996898;28;20505;-47
2022/07/27 05:45:00;;;;;;;6.50;2.00;;;17.00;55.00;;;;;;4996279;28;20050;-48
2022/07/27 05:47:28;;;;;;;6.57;1.80;;;17.00;54.90;;;;;;5003080;28;20058;-46
2022/07/27 05:49:55;;;;;;;9.75;2.40;;;17.00;55.00;;;;;;5000902;28;20382;-43
2022/07/27 05:52:23;;;;;;;10.30;2.38;;;17.00;54.90;;;;;;4999216;28;20049;-42
2022/07/27 05:54:50;;;;;;;7.20;1.73;;;17.10;55.00;;;;;;4996886;28;20061;-43
2022/07/27 05:57:18;;;;;;;8.65;2.08;;;17.10;55.20;;;;;;4997143;28;20493;-49
2022/07/27 05:59:47;;;;;;;7.53;2.50;;;17.20;54.90;;;;;;5003256;28;20046;-43
2022/07/27 06:02:14;;;;;;;3.70;1.35;;;17.20;54.60;;;;;;5003772;28;20446;-45
2022/07/27 06:04:42;;;;;;;9.82;2.58;;;17.30;54.60;;;;;;5004158;28;20065;-46
2022/07/27 06:09:54;;;;;;;6.78;2.10;;;17.40;54.50;;;;;;5008954;28;20070;-42
2022/07/27 06:12:21;;;;;;;4.05;1.50;;;17.50;54.30;;;;;;5003579;28;20049;-47
2022/07/27 06:14:53;;;;;;;7.05;1.55;;;17.60;54.40;;;;;;5002483;28;20425;-44
2022/07/27 06:17:20;;;;;;;7.80;1.85;;;17.60;54.10;;;;;;5000225;28;20498;-47
2022/07/27 06:19:48;;;;;;;3.65;1.25;;;17.60;53.90;;;;;;4991635;28;20072;-46
2022/07/27 06:22:16;;;;;;;7.10;1.63;;;17.70;54.00;;;;;;4983462;28;20061;-49
2022/07/27 06:24:44;;;;;;;8.18;1.88;;;17.80;53.70;;;;;;4999279;28;20058;-45
2022/07/27 06:27:11;;;;;;;6.30;1.80;;;17.80;53.50;;;;;;4991301;28;20064;-47
2022/07/27 06:29:38;;;;;;;8.32;1.98;;;17.80;53.50;;;;;;4998054;28;20058;-48
2022/07/27 06:32:08;;;;;;;9.45;2.00;;;17.90;53.40;;;;;;5001542;28;20402;-43
2022/07/27 06:34:35;;;;;;;3.50;1.10;;;17.90;53.00;;;;;;4986975;28;20108;-44
2022/07/27 06:37:03;;;;;;;9.18;2.03;;;18.00;53.20;;;;;;4994562;28;20069;-49
2022/07/27 06:39:30;;;;;;;7.45;1.73;;;18.00;53.10;;;;;;4985470;28;20054;-47
2022/07/27 06:41:58;;;;;;;7.47;1.58;;;18.00;53.40;;;;;;4991913;28;20058;-52
2022/07/27 06:44:25;;;;;;;7.05;1.63;;;18.00;53.00;;;;;;4988506;28;20053;-43
2022/07/27 06:46:52;;;;;;;8.75;1.38;;;18.10;53.00;;;;;;4994040;28;20065;-47
2022/07/27 06:49:21;;;;;;;3.78;1.30;;;18.10;52.90;;;;;;4998524;28;20482;-43
2022/07/27 06:51:49;;;;;;;6.32;1.98;;;18.10;52.90;;;;;;4997531;28;20053;-46
2022/07/27 06:54:17;;;;;;;13.38;1.73;;;18.20;52.90;;;;;;4996668;28;20069;-43
2022/07/27 06:56:45;;;;;;;5.88;1.48;;;18.20;52.70;;;;;;5003497;28;20060;-42
2022/07/27 06:59:14;;;;;;;7.88;1.30;;;18.20;52.60;;;;;;5005484;28;20053;-47
2022/07/27 07:01:43;;;;;;;6.82;1.55;;;18.30;52.40;;;;;;5007726;28;20050;-44
2022/07/27 07:04:12;;;;;;;3.95;1.27;;;18.30;52.80;;;;;;5001670;28;20054;-46
2022/07/27 07:06:41;;;;;;;12.40;1.77;;;18.30;52.60;;;;;;4997959;28;20501;-49
2022/07/27 07:09:09;;;;;;;10.68;2.05;;;18.40;52.20;;;;;;4990060;28;20418;-44
2022/07/27 07:11:37;;;;;;;6.07;1.50;;;18.40;52.10;;;;;;4992390;28;20077;-47
2022/07/27 07:14:04;;;;;;;9.23;1.20;;;18.40;51.90;;;;;;4993104;28;20144;-46
2022/07/27 07:16:31;;;;;;;4.53;1.38;;;18.50;51.80;;;;;;4990913;28;20498;-48
2022/07/27 07:18:59;;;;;;;3.80;1.15;;;18.50;51.40;;;;;;4994933;28;20049;-46
2022/07/27 07:21:32;;;;;;;6.80;1.45;;;18.50;51.10;;;;;;4999734;28;20050;-44
2022/07/27 07:24:01;;;;;;;7.27;1.53;;;18.50;51.20;;;;;;4992890;28;20418;-50
2022/07/27 07:26:30;;;;;;;3.95;1.42;;;18.50;50.70;;;;;;4996538;28;20484;-47
2022/07/27 07:28:57;;;;;;;4.63;1.30;;;18.60;51.10;;;;;;4990650;28;20061;-46
2022/07/27 07:31:25;;;;;;;5.40;1.00;;;18.60;51.30;;;;;;4992739;28;20049;-48
2022/07/27 07:33:52;;;;;;;2.60;1.00;;;18.60;51.20;;;;;;4992891;28;20058;-45
2022/07/27 07:36:20;;;;;;;5.00;1.00;;;18.70;51.20;;;;;;4992065;28;20053;-44
2022/07/27 07:38:48;;;;;;;3.00;1.33;;;18.70;50.90;;;;;;4991995;28;20054;-47
2022/07/27 07:41:17;;;;;;;3.67;1.00;;;18.80;50.60;;;;;;4989872;28;20486;-47
2022/07/27 07:43:44;;;;;;;3.95;1.13;;;18.80;49.70;;;;;;4992038;28;20068;-44
2022/07/27 07:46:12;;;;;;;3.58;0.80;;;18.80;49.40;;;;;;4993809;28;20068;-47
2022/07/27 07:48:42;;;;;;;2.70;1.00;;;18.90;49.30;;;;;;4991608;28;20058;-49
2022/07/27 07:51:09;;;;;;;4.15;1.00;;;18.90;49.60;;;;;;4996387;28;20057;-44
2022/07/27 07:53:36;;;;;;;3.92;1.05;;;19.00;48.70;;;;;;4989693;28;20061;-45
2022/07/27 07:56:05;;;;;;;3.33;1.20;;;19.00;48.70;;;;;;4993934;28;20057;-46
2022/07/27 07:58:34;;;;;;;5.72;1.30;;;19.00;48.50;;;;;;4998401;28;20062;-44
2022/07/27 08:01:01;;;;;;;3.50;0.95;;;19.00;48.70;;;;;;4993084;28;20053;-51
2022/07/27 08:03:29;;;;;;;3.15;0.93;;;19.10;49.20;;;;;;4996228;28;20508;-46
2022/07/27 08:05:56;;;;;;;1.73;0.80;;;19.10;48.60;;;;;;4991398;28;20069;-45
2022/07/27 08:08:24;;;;;;;2.35;1.00;;;19.20;47.70;;;;;;4991804;28;20520;-46
2022/07/27 08:10:51;;;;;;;5.32;1.27;;;19.20;47.90;;;;;;4991071;28;20061;-49
2022/07/27 08:13:19;;;;;;;4.70;1.05;;;19.30;48.10;;;;;;4991258;28;20053;-49
2022/07/27 08:15:48;;;;;;;5.30;1.00;;;19.40;47.90;;;;;;4992382;28;20060;-51
2022/07/27 08:18:15;;;;;;;3.88;1.23;;;19.40;48.10;;;;;;4991981;28;20061;-46
2022/07/27 08:20:43;;;;;;;6.25;0.80;;;19.50;47.40;;;;;;4991165;28;20061;-45
2022/07/27 08:23:11;;;;;;;4.32;1.20;;;19.50;47.10;;;;;;4988362;28;20062;-47
2022/07/27 08:25:39;;;;;;;5.07;1.20;;;19.60;47.50;;;;;;4999634;28;20050;-46
2022/07/27 08:28:07;;;;;;;4.15;0.90;;;19.60;47.00;;;;;;4994507;28;20049;-47
2022/07/27 08:30:35;;;;;;;9.05;1.08;;;19.60;46.80;;;;;;4989649;28;20050;-42
2022/07/27 08:33:05;;;;;;;2.97;0.80;;;19.70;46.60;;;;;;4992662;28;20065;-49
2022/07/27 08:35:34;;;;;;;2.58;0.90;;;19.70;46.60;;;;;;4994787;28;20065;-47
2022/07/27 08:38:02;;;;;;;3.58;0.68;;;19.70;46.00;;;;;;4998560;28;20065;-46
2022/07/27 08:40:30;;;;;;;7.88;1.00;;;19.70;45.80;;;;;;5001559;28;20050;-46
2022/07/27 08:43:00;;;;;;;3.92;0.90;;;19.60;45.80;;;;;;4998464;28;20057;-47
2022/07/27 08:45:28;;;;;;;1.63;0.73;;;19.60;45.80;;;;;;5001544;28;20056;-51
2022/07/27 08:47:56;;;;;;;2.28;0.60;;;19.70;45.50;;;;;;5002514;28;20049;-45
2022/07/27 08:50:26;;;;;;;1.92;0.60;;;19.60;45.30;;;;;;5001939;28;20871;-45
2022/07/27 08:53:02;;;;;;;4.72;0.70;;;19.70;45.10;;;;;;5001871;28;20521;-43
2022/07/27 08:55:31;;;;;;;3.20;0.65;;;19.70;45.50;;;;;;4989549;28;20057;-46
2022/07/27 08:57:59;;;;;;;1.92;0.60;;;19.60;45.40;;;;;;4990889;28;20058;-53
2022/07/27 09:00:28;;;;;;;2.08;0.60;;;19.60;45.30;;;;;;4987057;28;20042;-47
2022/07/27 09:02:56;;;;;;;3.70;0.77;;;19.70;45.50;;;;;;4998344;28;20062;-43
2022/07/27 09:05:25;;;;;;;6.68;0.93;;;19.70;45.70;;;;;;5002918;28;20065;-46
2022/07/27 09:07:52;;;;;;;5.20;0.95;;;19.70;45.70;;;;;;4983588;28;20496;-46
2022/07/27 09:10:30;;;;;;;3.03;0.60;;;19.80;45.40;;;;;;4984112;28;20057;-47
2022/07/27 09:12:58;;;;;;;2.88;0.70;;;19.80;44.30;;;;;;4993711;28;20053;-45
2022/07/27 09:15:26;;;;;;;1.73;0.55;;;19.90;44.30;;;;;;5003819;28;20080;-44
2022/07/27 09:17:54;;;;;;;1.95;0.50;;;20.00;44.90;;;;;;5005085;28;20058;-46
2022/07/27 09:20:21;;;;;;;3.88;0.90;;;20.10;44.80;;;;;;5002681;28;20057;-45
2022/07/27 09:22:51;;;;;;;2.67;0.60;;;20.20;45.20;;;;;;5005663;28;20057;-48
2022/07/27 09:25:21;;;;;;;5.30;1.15;;;20.30;43.90;;;;;;5004561;28;20064;-44
2022/07/27 09:27:49;;;;;;;5.20;0.68;;;20.30;43.40;;;;;;5002406;28;20054;-45
2022/07/27 09:30:19;;;;;;;4.90;0.80;;;20.30;43.50;;;;;;5003467;28;20531;-46
2022/07/27 09:32:55;;;;;;;2.47;0.85;;;20.40;43.60;;;;;;5006405;28;20049;-45
2022/07/27 09:35:25;;;;;;;2.50;0.70;;;20.40;43.60;;;;;;5003845;28;20988;-47
2022/07/27 09:37:54;;;;;;;3.17;0.80;;;20.40;43.30;;;;;;5002633;28;20096;-45
2022/07/27 09:40:23;;;;;;;2.47;0.60;;;20.40;42.80;;;;;;5003960;28;20080;-48
2022/07/27 09:43:09;;;;;;;2.17;0.50;;;20.40;43.20;;;;;;5003141;28;20077;-44
2022/07/27 09:45:38;;;;;;;2.13;0.60;;;20.50;43.40;;;;;;5002276;28;20421;-50
2022/07/27 09:48:14;;;;;;;4.03;0.90;;;20.50;42.80;;;;;;5004143;28;20066;-48
2022/07/27 09:50:44;;;;;;;4.82;0.70;;;20.60;42.10;;;;;;5003675;28;20050;-48
2022/07/27 09:53:19;;;;;;;4.13;0.60;;;20.60;41.70;;;;;;5004791;28;20066;-47
2022/07/27 09:55:56;;;;;;;2.03;0.80;;;20.60;42.20;;;;;;5003442;28;20057;-45
2022/07/27 09:58:39;;;;;;;2.55;0.68;;;20.60;41.90;;;;;;5003520;28;20054;-47
2022/07/27 10:01:07;;;;;;;4.00;0.57;;;20.60;41.70;;;;;;5004267;28;20054;-46
2022/07/27 10:03:35;;;;;;;2.85;0.68;;;20.60;41.40;;;;;;5003344;28;20049;-46
2022/07/27 10:06:03;;;;;;;2.75;0.50;;;20.70;41.60;;;;;;5002700;28;20061;-47
2022/07/27 10:08:33;;;;;;;4.35;0.80;;;20.70;41.60;;;;;;5004908;28;20813;-45
2022/07/27 10:11:00;;;;;;;2.75;0.80;;;20.70;41.80;;;;;;5002968;28;20061;-46
2022/07/27 10:13:27;;;;;;;3.47;0.63;;;20.70;42.60;;;;;;5000994;28;20056;-48
2022/07/27 10:15:55;;;;;;;8.32;1.13;;;20.80;42.20;;;;;;5004754;28;20058;-45
2022/07/27 10:18:33;;;;;;;1.83;0.60;;;20.80;42.00;;;;;;5004320;28;20060;-48
2022/07/27 10:21:06;;;;;;;5.32;0.70;;;20.90;41.20;;;;;;5003789;28;20046;-47
2022/07/27 10:23:37;;;;;;;1.90;0.70;;;20.90;40.70;;;;;;5000274;28;20061;-44
2022/07/27 10:26:22;;;;;;;6.97;0.88;;;21.00;41.50;;;;;;5002515;28;20054;-43
2022/07/27 10:28:54;;;;;;;6.65;0.90;;;21.00;41.60;;;;;;5002802;28;20081;-48
2022/07/27 10:31:23;;;;;;;21.67;2.83;;;21.00;41.40;;;;;;5003403;28;20050;-44
2022/07/27 10:33:52;;;;;;;5.00;0.80;;;21.10;41.40;;;;;;5001852;28;20056;-52
2022/07/27 10:36:47;;;;;;;5.22;0.73;;;21.10;41.80;;;;;;5002870;28;20054;-49
2022/07/27 10:39:36;;;;;;;3.53;0.70;;;21.10;40.90;;;;;;5003674;28;20050;-53
2022/07/27 10:42:27;;;;;;;13.00;1.08;;;21.10;40.00;;;;;;5004560;28;20061;-44
2022/07/27 10:45:08;;;;;;;3.97;0.80;;;21.10;40.10;;;;;;5003569;28;20509;-46
2022/07/27 10:47:42;;;;;;;1.10;0.50;;;21.10;40.50;;;;;;5003325;28;20060;-46
2022/07/27 10:50:32;;;;;;;2.90;0.57;;;21.10;40.80;;;;;;5003269;28;20057;-45
2022/07/27 10:53:05;;;;;;;2.05;0.60;;;21.20;41.40;;;;;;5002220;28;20069;-44
2022/07/27 10:55:58;;;;;;;4.50;0.70;;;21.30;41.70;;;;;;5003054;28;20064;-45
2022/07/27 10:58:55;;;;;;;4.25;0.98;;;21.40;42.20;;;;;;5001378;28;20498;-45
2022/07/27 11:01:23;;;;;;;4.45;0.60;;;21.50;39.70;;;;;;4938140;28;20519;-45
2022/07/27 11:03:55;;;;;;;3.50;0.40;;;21.40;38.80;;;;;;4976368;28;20049;-44
2022/07/27 11:06:28;;;;;;;1.23;0.35;;;21.50;39.20;;;;;;4997983;28;20054;-44
2022/07/27 11:08:56;;;;;;;3.15;0.90;;;21.50;39.00;;;;;;5003691;28;20510;-44
2022/07/27 11:11:26;;;;;;;4.32;0.88;;;21.50;39.90;;;;;;4998151;28;20042;-45
2022/07/27 11:13:57;;;;;;;4.60;0.95;;;21.50;39.40;;;;;;4991107;28;20065;-43
2022/07/27 11:16:27;;;;;;;1.50;0.50;;;21.60;39.10;;;;;;5003908;28;20060;-45
2022/07/27 11:19:03;;;;;;;2.00;0.50;;;21.60;39.50;;;;;;5002546;28;20054;-46
2022/07/27 11:21:33;;;;;;;3.25;0.57;;;21.70;39.40;;;;;;4996469;28;20057;-50
2022/07/27 11:24:04;;;;;;;2.53;0.63;;;21.80;38.80;;;;;;4996807;28;20057;-45
2022/07/27 11:26:41;;;;;;;2.22;0.63;;;21.80;38.10;;;;;;5003364;28;20062;-49
2022/07/27 11:29:10;;;;;;;4.40;0.60;;;21.80;37.30;;;;;;4999037;28;20057;-45
2022/07/27 11:31:39;;;;;;;1.73;0.50;;;21.80;38.00;;;;;;5001177;28;20502;-45
2022/07/27 11:34:07;;;;;;;2.00;0.43;;;21.80;38.50;;;;;;5003673;28;20064;-45
2022/07/27 11:36:40;;;;;;;2.67;0.50;;;21.80;38.50;;;;;;5001264;28;20058;-44
2022/07/27 11:39:09;;;;;;;5.38;1.10;;;21.90;38.40;;;;;;5003385;28;20060;-47
2022/07/27 11:41:38;;;;;;;1.70;0.68;;;21.90;37.40;;;;;;5001960;28;20087;-49
2022/07/27 11:44:08;;;;;;;1.92;0.50;;;21.90;36.30;;;;;;4998270;28;20061;-48
2022/07/27 11:46:41;;;;;;;1.10;0.60;;;21.90;35.90;;;;;;5002643;28;20081;-44
2022/07/27 11:49:11;;;;;;;2.08;0.70;;;21.90;36.90;;;;;;5003473;28;20942;-49
2022/07/27 11:51:41;;;;;;;2.15;0.80;;;21.90;37.80;;;;;;5000666;28;20054;-45
2022/07/27 11:54:11;;;;;;;3.78;0.60;;;21.90;36.90;;;;;;5002678;28;20058;-46
2022/07/27 11:56:43;;;;;;;2.20;0.60;;;22.00;37.00;;;;;;4997556;28;20058;-45
2022/07/27 11:59:13;;;;;;;2.03;0.68;;;22.00;37.20;;;;;;5001844;28;20831;-47
2022/07/27 12:01:43;;;;;;;1.90;0.60;;;22.10;37.20;;;;;;5000587;28;20401;-41
2022/07/27 12:04:14;;;;;;;9.48;0.82;;;22.20;37.90;;;;;;5003306;28;20045;-58
2022/07/27 12:06:43;;;;;;;1.60;0.60;;;22.20;36.70;;;;;;5000234;28;20054;-46
2022/07/27 12:09:14;;;;;;;3.42;0.88;;;22.20;37.30;;;;;;4996414;28;20053;-47
2022/07/27 12:11:58;;;;;;;2.95;0.65;;;22.30;37.20;;;;;;4998115;28;20525;-50
2022/07/27 12:14:34;;;;;;;2.72;0.63;;;22.30;37.60;;;;;;5000355;28;20053;-47
2022/07/27 12:17:13;;;;;;;2.60;0.60;;;22.40;36.90;;;;;;5002270;28;20050;-48
2022/07/27 12:19:41;;;;;;;2.90;0.70;;;22.30;35.20;;;;;;5001116;28;20061;-48
2022/07/27 12:22:09;;;;;;;2.28;0.82;;;22.20;35.40;;;;;;5003158;28;20050;-50
2022/07/27 12:24:39;;;;;;;5.82;0.82;;;22.20;36.30;;;;;;5002952;28;20561;-44
2022/07/27 12:27:13;;;;;;;1.80;0.93;;;22.20;36.00;;;;;;4999796;28;20049;-44
2022/07/27 12:30:00;;;;;;;1.67;0.60;;;22.20;36.40;;;;;;4998298;28;20050;-45
2022/07/27 12:32:30;;;;;;;2.53;0.60;;;22.20;36.80;;;;;;5002923;28;20061;-46
2022/07/27 12:34:58;;;;;;;2.70;0.88;;;22.20;36.80;;;;;;4998415;28;20229;-46
2022/07/27 12:37:29;;;;;;;3.40;0.70;;;22.30;36.90;;;;;;5001655;28;20046;-44
2022/07/27 12:39:57;;;;;;;2.40;0.68;;;22.30;36.70;;;;;;5000300;28;20065;-43
2022/07/27 12:42:35;;;;;;;2.13;0.90;;;22.40;36.20;;;;;;5000486;28;20054;-44
2022/07/27 12:45:17;;;;;;;1.35;0.60;;;22.40;36.50;;;;;;5001504;28;20054;-48
2022/07/27 12:47:45;;;;;;;2.83;0.75;;;22.50;36.90;;;;;;5003938;28;20069;-42
2022/07/27 12:50:14;;;;;;;6.38;0.80;;;22.50;36.00;;;;;;5005375;28;20057;-46
2022/07/27 12:52:46;;;;;;;3.80;0.77;;;22.60;35.30;;;;;;5006590;28;20537;-47
2022/07/27 12:55:13;;;;;;;3.35;0.75;;;22.60;35.10;;;;;;5003111;28;20053;-50
2022/07/27 12:57:42;;;;;;;3.50;0.63;;;22.60;35.00;;;;;;5003509;28;20061;-45
2022/07/27 13:00:13;;;;;;;1.58;0.70;;;22.50;35.30;;;;;;5005511;28;20056;-45